Time;durP1;ratioP1;P1;durP2;ratioP2;P2;SDS_P1;SDS_P2;PMS_P1;PMS_P2;Temp;Humidity;BMP_temperature;BMP_pressure;BME280_temperature;BME280_humidity;BME280_pressure;Samples;Min_cycle;Max_cycle;Signal;HPM_P1;HPM_P2
2022/09/17 00:01:27;;;;;;;3.20;1.10;;;9.60;99.90;;;;;;5114341;28;20175;-38
2022/09/17 00:04:03;;;;;;;2.70;1.10;;;9.60;99.90;;;;;;5114183;27;20671;-40
2022/09/17 00:06:32;;;;;;;4.53;1.43;;;9.60;99.90;;;;;;5114237;28;20750;-39
2022/09/17 00:08:58;;;;;;;9.43;1.47;;;9.60;99.90;;;;;;5114407;28;20182;-39
2022/09/17 00:11:26;;;;;;;4.37;1.60;;;9.60;99.90;;;;;;5114220;28;20671;-37
2022/09/17 00:13:53;;;;;;;7.70;1.50;;;9.60;99.90;;;;;;5113724;28;20219;-39
2022/09/17 00:16:28;;;;;;;5.53;1.10;;;9.70;99.90;;;;;;5113945;28;20218;-38
2022/09/17 00:18:55;;;;;;;3.30;1.30;;;9.70;99.90;;;;;;5114129;28;20158;-40
2022/09/17 00:21:21;;;;;;;4.87;1.20;;;9.70;99.90;;;;;;5113904;28;20186;-40
2022/09/17 00:23:47;;;;;;;7.43;1.37;;;9.70;99.90;;;;;;5113870;28;20261;-37
2022/09/17 00:26:13;;;;;;;6.20;1.10;;;9.70;99.90;;;;;;5113679;28;20214;-39
2022/09/17 00:28:40;;;;;;;5.83;1.60;;;9.70;99.90;;;;;;5113879;28;20254;-38
2022/09/17 00:31:07;;;;;;;6.87;1.40;;;9.70;99.90;;;;;;5113763;28;20175;-37
2022/09/17 00:33:33;;;;;;;6.33;1.30;;;9.70;99.90;;;;;;5114028;28;20542;-39
2022/09/17 00:36:01;;;;;;;4.70;1.67;;;9.70;99.90;;;;;;5113773;28;20197;-38
2022/09/17 00:38:27;;;;;;;1.90;1.10;;;9.70;99.90;;;;;;5112527;28;20175;-39
2022/09/17 00:40:53;;;;;;;4.83;1.17;;;9.80;99.90;;;;;;5113580;28;20191;-39
2022/09/17 00:43:35;;;;;;;4.53;1.30;;;9.80;99.90;;;;;;5113977;28;20198;-39
2022/09/17 00:46:02;;;;;;;8.43;1.53;;;9.80;99.90;;;;;;5113585;28;20234;-40
2022/09/17 00:48:28;;;;;;;6.00;1.00;;;9.70;99.90;;;;;;5113512;28;20174;-39
2022/09/17 00:50:55;;;;;;;5.03;1.50;;;9.70;99.90;;;;;;5112207;28;20179;-39
2022/09/17 00:53:21;;;;;;;4.73;1.30;;;9.70;99.90;;;;;;5113513;28;20174;-39
2022/09/17 00:56:21;;;;;;;5.93;1.27;;;9.70;99.90;;;;;;5113439;28;20295;-39
2022/09/17 00:58:47;;;;;;;4.77;1.30;;;9.70;99.90;;;;;;5112119;28;20719;-39
2022/09/17 01:01:13;;;;;;;4.73;1.23;;;9.70;99.90;;;;;;5113394;28;20266;-39
2022/09/17 01:03:39;;;;;;;4.87;1.37;;;9.70;99.90;;;;;;5113545;28;20217;-38
2022/09/17 01:06:23;;;;;;;3.23;1.20;;;9.70;99.90;;;;;;5113545;28;20202;-39
2022/09/17 01:09:06;;;;;;;3.67;1.30;;;9.60;99.90;;;;;;5113388;28;20613;-37
2022/09/17 01:11:58;;;;;;;2.80;1.13;;;9.70;99.90;;;;;;5113668;28;20197;-39
2022/09/17 01:14:36;;;;;;;4.00;1.10;;;9.70;99.90;;;;;;5109141;28;20565;-38
2022/09/17 01:17:10;;;;;;;6.60;1.20;;;9.70;99.90;;;;;;5113243;28;20545;-38
2022/09/17 01:20:14;;;;;;;4.77;1.10;;;9.70;99.90;;;;;;5113222;28;20177;-40
2022/09/17 01:22:58;;;;;;;4.13;1.10;;;9.70;99.90;;;;;;5114024;28;20510;-39
2022/09/17 01:25:42;;;;;;;5.67;1.10;;;9.70;99.90;;;;;;5113440;28;20214;-38
2022/09/17 01:28:25;;;;;;;7.67;1.30;;;9.70;99.90;;;;;;5117641;27;20252;-41
2022/09/17 01:30:50;;;;;;;8.00;1.33;;;9.70;99.90;;;;;;5117564;28;20156;-40
2022/09/17 01:33:44;;;;;;;2.93;0.90;;;9.60;99.90;;;;;;5117652;28;20711;-39
2022/09/17 01:36:32;;;;;;;8.43;1.67;;;9.60;99.90;;;;;;5117225;28;20204;-41
2022/09/17 01:39:11;;;;;;;5.43;1.73;;;9.60;99.90;;;;;;5117740;28;20682;-39
2022/09/17 01:41:52;;;;;;;6.27;1.53;;;9.60;99.90;;;;;;5117520;28;20204;-39
2022/09/17 01:44:43;;;;;;;5.13;1.50;;;9.60;99.90;;;;;;5117434;28;20274;-38
2022/09/17 01:47:22;;;;;;;5.17;1.53;;;9.60;99.90;;;;;;5117053;28;20270;-38
2022/09/17 01:49:51;;;;;;;6.37;1.47;;;9.60;99.90;;;;;;5117805;28;20250;-38
2022/09/17 01:52:18;;;;;;;6.60;1.23;;;9.50;99.90;;;;;;5117854;28;20568;-39
2022/09/17 01:54:48;;;;;;;3.10;1.10;;;9.50;99.90;;;;;;5117159;28;20215;-40
2022/09/17 01:57:27;;;;;;;2.10;1.17;;;9.50;99.90;;;;;;5117293;28;20208;-39
2022/09/17 02:00:01;;;;;;;6.27;1.27;;;9.50;99.90;;;;;;5117561;28;20166;-41
2022/09/17 02:02:34;;;;;;;5.00;1.40;;;9.50;99.90;;;;;;5117884;28;20166;-39
2022/09/17 02:05:08;;;;;;;7.63;1.53;;;9.50;99.90;;;;;;5117171;28;20275;-41
2022/09/17 02:07:41;;;;;;;3.50;1.27;;;9.50;99.90;;;;;;5126960;28;20253;-39
2022/09/17 02:10:24;;;;;;;11.97;2.00;;;9.50;99.90;;;;;;5118596;28;20167;-37
2022/09/17 02:12:58;;;;;;;6.20;1.57;;;9.50;99.90;;;;;;5117133;28;20173;-39
2022/09/17 02:15:29;;;;;;;5.67;1.77;;;9.50;99.90;;;;;;5117089;28;20222;-37
2022/09/17 02:18:10;;;;;;;5.40;1.30;;;9.50;99.90;;;;;;5116931;28;20167;-37
2022/09/17 02:20:46;;;;;;;9.80;2.00;;;9.50;99.90;;;;;;5116618;28;20169;-40
2022/09/17 02:23:17;;;;;;;7.77;1.60;;;9.60;99.90;;;;;;5116708;28;20202;-39
2022/09/17 02:25:51;;;;;;;9.67;1.70;;;9.50;99.90;;;;;;5116263;28;20243;-38
2022/09/17 02:28:44;;;;;;;5.37;1.93;;;9.60;99.90;;;;;;5116621;28;20162;-44
2022/09/17 02:31:11;;;;;;;6.90;1.50;;;9.60;99.90;;;;;;5117280;28;20510;-46
2022/09/17 02:33:39;;;;;;;6.37;1.53;;;9.60;99.90;;;;;;5116931;28;20259;-38
2022/09/17 02:36:05;;;;;;;8.87;1.80;;;9.70;99.90;;;;;;5116316;28;20198;-42
2022/09/17 02:38:30;;;;;;;8.00;1.87;;;9.50;99.90;;;;;;5116030;28;20261;-40
2022/09/17 02:41:13;;;;;;;6.53;1.63;;;9.60;99.90;;;;;;5116478;28;20179;-40
2022/09/17 02:44:04;;;;;;;10.27;1.83;;;9.60;99.90;;;;;;5115652;28;20562;-39
2022/09/17 02:46:47;;;;;;;5.13;1.80;;;9.60;99.90;;;;;;5116240;28;20214;-39
2022/09/17 02:49:19;;;;;;;5.73;1.87;;;9.60;99.90;;;;;;5116801;28;20168;-43
2022/09/17 02:51:51;;;;;;;5.83;1.50;;;9.60;99.90;;;;;;5116755;28;20486;-45
2022/09/17 02:54:35;;;;;;;9.43;1.90;;;9.60;99.90;;;;;;5115900;28;20181;-45
2022/09/17 02:57:26;;;;;;;8.17;1.77;;;9.70;99.90;;;;;;5116086;27;20172;-44
2022/09/17 03:00:13;;;;;;;3.63;1.40;;;9.70;99.90;;;;;;5115735;28;20175;-45
2022/09/17 03:02:47;;;;;;;4.40;1.60;;;9.70;99.90;;;;;;5116198;28;20166;-44
2022/09/17 03:05:15;;;;;;;8.73;1.77;;;9.70;99.90;;;;;;5115758;28;20206;-44
2022/09/17 03:07:41;;;;;;;4.30;1.33;;;9.70;99.90;;;;;;5115652;28;20179;-44
2022/09/17 03:10:07;;;;;;;5.90;1.50;;;9.70;99.90;;;;;;5115925;28;20159;-43
2022/09/17 03:12:33;;;;;;;4.67;1.40;;;9.70;99.90;;;;;;5115674;28;20670;-44
2022/09/17 03:14:59;;;;;;;8.20;1.63;;;9.70;99.90;;;;;;5115476;28;20194;-44
2022/09/17 03:17:25;;;;;;;9.40;1.70;;;9.70;99.90;;;;;;5115278;28;20220;-44
2022/09/17 03:19:50;;;;;;;8.60;2.00;;;9.70;99.90;;;;;;5115326;28;20202;-45
2022/09/17 03:22:16;;;;;;;5.50;1.53;;;9.70;99.90;;;;;;5115579;28;20237;-44
2022/09/17 03:24:42;;;;;;;11.07;2.13;;;9.70;99.90;;;;;;5115074;28;20589;-44
2022/09/17 03:27:07;;;;;;;5.53;1.90;;;9.70;99.90;;;;;;5115258;28;20646;-45
2022/09/17 03:29:33;;;;;;;6.03;1.50;;;9.70;99.90;;;;;;5115275;28;20175;-44
2022/09/17 03:31:59;;;;;;;6.83;1.33;;;9.70;99.90;;;;;;5115293;28;20174;-45
2022/09/17 03:34:25;;;;;;;6.50;1.67;;;9.70;99.90;;;;;;5115041;28;20202;-44
2022/09/17 03:36:51;;;;;;;5.30;1.40;;;9.70;99.90;;;;;;5115041;28;20690;-44
2022/09/17 03:39:16;;;;;;;8.00;1.43;;;9.70;99.90;;;;;;5115150;28;20261;-43
2022/09/17 03:41:42;;;;;;;5.37;1.47;;;9.60;99.90;;;;;;5113572;28;20179;-45
2022/09/17 03:44:09;;;;;;;5.23;1.33;;;9.70;99.90;;;;;;5114860;28;20202;-45
2022/09/17 03:46:35;;;;;;;8.20;1.57;;;9.70;99.90;;;;;;5114838;28;20196;-43
2022/09/17 03:49:01;;;;;;;10.43;2.00;;;9.60;99.90;;;;;;5114126;28;20193;-45
2022/09/17 03:51:27;;;;;;;7.87;1.50;;;9.70;99.90;;;;;;5114934;28;20171;-43
2022/09/17 03:53:52;;;;;;;4.50;1.33;;;9.70;99.90;;;;;;5114507;28;20705;-46
2022/09/17 03:56:18;;;;;;;6.17;1.67;;;9.60;99.90;;;;;;5114542;28;20221;-45
2022/09/17 03:58:44;;;;;;;4.27;1.77;;;9.60;99.90;;;;;;5114660;28;20223;-44
2022/09/17 04:01:09;;;;;;;6.23;1.40;;;9.50;99.90;;;;;;5114774;28;20182;-43
2022/09/17 04:03:35;;;;;;;11.77;1.67;;;9.50;99.90;;;;;;5114622;28;20255;-44
2022/09/17 04:06:01;;;;;;;9.53;2.23;;;9.50;99.90;;;;;;5114357;28;20214;-45
2022/09/17 04:08:26;;;;;;;5.00;1.40;;;9.50;99.90;;;;;;5114637;28;20196;-43
2022/09/17 04:10:52;;;;;;;7.93;1.57;;;9.50;99.90;;;;;;5114677;28;20643;-45
2022/09/17 04:13:18;;;;;;;4.63;1.30;;;9.50;99.90;;;;;;5114513;28;20532;-44
2022/09/17 04:15:45;;;;;;;8.10;1.53;;;9.50;99.90;;;;;;5114114;28;20193;-44
2022/09/17 04:18:12;;;;;;;9.17;1.60;;;9.50;99.90;;;;;;5114679;28;20818;-43
2022/09/17 04:20:37;;;;;;;4.80;1.30;;;9.50;99.90;;;;;;5114352;28;20214;-42
2022/09/17 04:23:03;;;;;;;4.27;1.10;;;9.50;99.90;;;;;;5114378;28;20216;-46
2022/09/17 04:25:29;;;;;;;8.47;1.40;;;9.50;99.90;;;;;;5113905;28;20216;-45
2022/09/17 04:27:55;;;;;;;5.60;1.30;;;9.50;99.90;;;;;;5114300;28;20189;-45
2022/09/17 04:30:21;;;;;;;7.67;1.30;;;9.50;99.90;;;;;;5114357;28;20544;-41
2022/09/17 04:32:47;;;;;;;6.10;1.57;;;9.60;99.90;;;;;;5116872;28;20178;-41
2022/09/17 04:35:13;;;;;;;6.67;1.40;;;9.60;99.90;;;;;;5114015;28;20195;-39
2022/09/17 04:37:38;;;;;;;6.03;1.40;;;9.60;99.90;;;;;;5114694;28;20170;-39
2022/09/17 04:40:05;;;;;;;7.10;1.77;;;9.60;99.90;;;;;;5114220;28;20647;-39
2022/09/17 04:42:30;;;;;;;9.43;1.57;;;9.70;99.90;;;;;;5113640;28;20175;-37
2022/09/17 04:44:56;;;;;;;6.37;1.40;;;9.60;99.90;;;;;;5113876;28;20217;-39
2022/09/17 04:47:23;;;;;;;7.77;1.77;;;9.60;99.90;;;;;;5113736;27;20170;-37
2022/09/17 04:49:48;;;;;;;5.23;1.53;;;9.60;99.90;;;;;;5113769;28;20174;-39
2022/09/17 04:52:14;;;;;;;8.77;1.90;;;9.60;99.90;;;;;;5114334;28;20174;-38
2022/09/17 04:54:39;;;;;;;5.97;1.83;;;9.60;99.90;;;;;;5113503;28;20220;-39
2022/09/17 04:57:05;;;;;;;6.30;1.40;;;9.60;99.90;;;;;;5113567;28;20203;-39
2022/09/17 04:59:31;;;;;;;6.70;1.60;;;9.60;99.90;;;;;;5113471;28;20178;-39
2022/09/17 05:01:56;;;;;;;4.43;0.90;;;9.60;99.90;;;;;;5113221;28;20174;-39
2022/09/17 05:04:22;;;;;;;6.13;1.37;;;9.60;99.90;;;;;;5112165;28;20200;-39
2022/09/17 05:06:48;;;;;;;7.00;1.27;;;9.60;99.90;;;;;;5113371;28;20200;-39
2022/09/17 05:09:14;;;;;;;5.80;1.50;;;9.60;99.90;;;;;;5113911;28;20174;-42
2022/09/17 05:11:40;;;;;;;4.90;1.30;;;9.70;99.90;;;;;;5113780;28;20722;-43
2022/09/17 05:14:05;;;;;;;4.97;1.33;;;9.70;99.90;;;;;;5113695;28;20269;-43
2022/09/17 05:16:31;;;;;;;5.40;1.20;;;9.70;99.90;;;;;;5113723;28;20240;-43
2022/09/17 05:18:57;;;;;;;13.10;1.70;;;9.80;99.90;;;;;;5113856;28;20261;-43
2022/09/17 05:21:23;;;;;;;3.97;1.23;;;9.80;99.90;;;;;;5112120;28;20611;-42
2022/09/17 05:23:48;;;;;;;4.40;1.43;;;9.70;99.90;;;;;;5111955;28;20300;-42
2022/09/17 05:26:14;;;;;;;9.13;1.57;;;9.80;99.90;;;;;;5113299;28;20211;-43
2022/09/17 05:28:40;;;;;;;7.93;1.70;;;9.80;99.90;;;;;;5112051;28;20573;-44
2022/09/17 05:31:06;;;;;;;5.43;1.70;;;9.80;99.90;;;;;;5111969;28;20166;-43
2022/09/17 05:33:32;;;;;;;7.23;1.27;;;9.80;99.90;;;;;;5113220;28;20177;-43
2022/09/17 05:35:58;;;;;;;5.17;1.20;;;9.90;99.90;;;;;;5113111;28;20591;-42
2022/09/17 05:38:24;;;;;;;8.37;1.40;;;9.90;99.90;;;;;;5113197;28;20707;-43
2022/09/17 05:40:50;;;;;;;7.47;1.60;;;10.00;99.90;;;;;;5113238;28;20296;-44
2022/09/17 05:43:16;;;;;;;7.37;1.70;;;10.00;99.90;;;;;;5112052;28;20198;-43
2022/09/17 05:45:42;;;;;;;11.63;1.50;;;10.00;99.90;;;;;;5111861;28;20194;-42
2022/09/17 05:48:12;;;;;;;6.47;1.97;;;10.00;99.90;;;;;;5113325;28;20189;-44
2022/09/17 05:50:38;;;;;;;8.53;1.43;;;10.10;99.90;;;;;;5111859;28;20628;-40
2022/09/17 05:53:06;;;;;;;6.17;1.23;;;10.10;99.90;;;;;;5113386;28;20269;-44
2022/09/17 05:55:33;;;;;;;9.00;1.73;;;10.10;99.90;;;;;;5111814;28;20194;-42
2022/09/17 05:57:59;;;;;;;5.40;1.40;;;10.10;99.90;;;;;;5111761;28;20182;-44
2022/09/17 06:00:25;;;;;;;6.43;1.70;;;10.10;99.90;;;;;;5114138;28;20563;-42
2022/09/17 06:02:57;;;;;;;7.07;1.37;;;10.20;99.90;;;;;;5113500;28;20174;-43
2022/09/17 06:05:23;;;;;;;6.30;1.47;;;10.10;99.90;;;;;;5111620;28;20204;-43
2022/09/17 06:07:50;;;;;;;6.63;1.60;;;10.20;99.90;;;;;;5111767;28;20194;-43
2022/09/17 06:10:15;;;;;;;7.90;1.43;;;10.20;99.90;;;;;;5113290;28;20675;-43
2022/09/17 06:12:41;;;;;;;4.73;1.33;;;10.20;99.90;;;;;;5113964;28;20275;-44
2022/09/17 06:15:07;;;;;;;4.13;1.17;;;10.20;99.90;;;;;;5116517;28;20656;-43
2022/09/17 06:17:35;;;;;;;9.37;1.63;;;10.20;99.90;;;;;;5115317;28;20522;-43
2022/09/17 06:20:02;;;;;;;7.37;1.40;;;10.20;99.90;;;;;;5115548;28;20174;-39
2022/09/17 06:22:28;;;;;;;5.73;1.23;;;10.20;99.90;;;;;;5117167;28;20185;-40
2022/09/17 06:24:53;;;;;;;4.93;1.30;;;10.10;99.90;;;;;;5116341;28;20206;-44
2022/09/17 06:27:19;;;;;;;10.37;2.03;;;10.10;99.90;;;;;;5117052;28;20186;-40
2022/09/17 06:29:44;;;;;;;7.30;1.37;;;10.10;99.90;;;;;;5117022;28;20185;-45
2022/09/17 06:32:11;;;;;;;7.60;1.27;;;10.10;99.90;;;;;;5116612;27;20574;-45
2022/09/17 06:34:38;;;;;;;10.80;1.67;;;10.10;99.90;;;;;;5116425;28;20187;-44
2022/09/17 06:37:04;;;;;;;4.93;1.20;;;10.10;99.90;;;;;;5116134;28;20178;-45
2022/09/17 06:39:29;;;;;;;8.07;1.77;;;10.10;99.90;;;;;;5116393;28;20580;-45
2022/09/17 06:41:55;;;;;;;5.53;1.40;;;10.20;99.90;;;;;;5116441;28;20183;-45
2022/09/17 06:44:20;;;;;;;5.57;1.30;;;10.30;99.90;;;;;;5115964;27;20206;-45
2022/09/17 06:46:49;;;;;;;6.40;1.63;;;10.30;99.90;;;;;;5116338;28;20614;-45
2022/09/17 06:49:16;;;;;;;10.13;1.60;;;10.30;99.90;;;;;;5116905;28;20181;-44
2022/09/17 06:51:42;;;;;;;8.50;1.50;;;10.40;99.90;;;;;;5116324;28;20265;-45
2022/09/17 06:54:08;;;;;;;6.97;1.47;;;10.40;99.90;;;;;;5115947;28;20205;-44
2022/09/17 06:56:33;;;;;;;9.10;1.80;;;10.40;99.90;;;;;;5115706;28;20251;-43
2022/09/17 06:59:00;;;;;;;7.10;1.37;;;10.50;99.90;;;;;;5115760;28;20173;-44
2022/09/17 07:01:25;;;;;;;5.27;1.50;;;10.50;99.90;;;;;;5116107;28;20273;-45
2022/09/17 07:03:51;;;;;;;7.63;2.50;;;10.60;99.90;;;;;;5115867;28;20286;-43
2022/09/17 07:06:17;;;;;;;5.30;2.30;;;10.70;99.90;;;;;;5115889;28;20200;-44
2022/09/17 07:08:42;;;;;;;9.80;2.03;;;10.70;99.90;;;;;;5115913;28;20519;-45
2022/09/17 07:11:08;;;;;;;7.67;1.60;;;10.80;99.90;;;;;;5115763;28;20174;-46
2022/09/17 07:13:34;;;;;;;12.00;5.03;;;10.90;99.90;;;;;;5115622;28;20187;-45
2022/09/17 07:16:01;;;;;;;6.53;2.47;;;11.00;99.90;;;;;;5115453;28;20199;-43
2022/09/17 07:18:27;;;;;;;5.13;1.30;;;11.10;99.90;;;;;;5115394;28;20557;-44
2022/09/17 07:20:57;;;;;;;7.80;1.90;;;11.20;99.90;;;;;;5115506;28;20171;-43
2022/09/17 07:23:24;;;;;;;10.53;1.20;;;11.20;99.90;;;;;;5114319;28;20195;-43
2022/09/17 07:25:58;;;;;;;7.90;1.70;;;11.30;99.90;;;;;;5115137;28;20596;-45
2022/09/17 07:28:24;;;;;;;4.27;1.40;;;11.40;99.90;;;;;;5115270;28;20212;-45
2022/09/17 07:30:51;;;;;;;3.43;1.23;;;11.50;99.90;;;;;;5115337;28;20178;-45
2022/09/17 07:33:22;;;;;;;3.97;1.40;;;11.60;99.90;;;;;;5115083;28;20175;-45
2022/09/17 07:35:59;;;;;;;5.43;1.57;;;11.60;99.90;;;;;;5115123;28;20561;-44
2022/09/17 07:38:25;;;;;;;14.87;1.70;;;11.60;99.90;;;;;;5115171;28;20338;-45
2022/09/17 07:41:06;;;;;;;7.80;1.37;;;11.70;99.90;;;;;;5114741;28;20188;-45
2022/09/17 07:43:33;;;;;;;4.37;1.50;;;11.70;99.90;;;;;;5114995;27;20658;-44
2022/09/17 07:46:00;;;;;;;4.30;1.47;;;11.80;99.90;;;;;;5114569;28;20188;-45
2022/09/17 07:48:27;;;;;;;11.20;2.20;;;11.80;99.90;;;;;;5114647;27;20227;-44
2022/09/17 07:50:53;;;;;;;7.43;1.73;;;11.90;99.90;;;;;;5114569;28;20638;-45
2022/09/17 07:53:19;;;;;;;12.07;1.30;;;12.10;99.90;;;;;;5114802;28;20187;-44
2022/09/17 07:55:52;;;;;;;8.30;1.67;;;12.20;99.90;;;;;;5114424;28;20277;-43
2022/09/17 07:58:18;;;;;;;6.70;2.03;;;12.20;99.90;;;;;;5114370;28;20208;-43
2022/09/17 08:00:44;;;;;;;7.37;1.47;;;12.20;99.90;;;;;;5114880;28;20208;-43
2022/09/17 08:03:09;;;;;;;10.17;1.63;;;12.20;99.90;;;;;;5114318;28;20182;-42
2022/09/17 08:05:35;;;;;;;7.60;2.03;;;12.40;99.90;;;;;;5114230;28;20201;-43
2022/09/17 08:08:00;;;;;;;6.07;1.93;;;12.50;99.90;;;;;;5114302;28;20173;-42
2022/09/17 08:10:26;;;;;;;10.07;1.67;;;12.60;99.90;;;;;;5114474;28;20195;-43
2022/09/17 08:12:57;;;;;;;9.73;1.47;;;12.70;99.90;;;;;;5114382;28;20184;-43
2022/09/17 08:15:24;;;;;;;8.40;1.80;;;12.80;99.90;;;;;;5114054;28;20341;-43
2022/09/17 08:17:50;;;;;;;6.30;1.40;;;12.80;99.90;;;;;;5114040;28;20276;-43
2022/09/17 08:20:16;;;;;;;7.70;1.40;;;12.90;99.90;;;;;;5114166;28;20206;-45
2022/09/17 08:22:42;;;;;;;7.77;1.33;;;12.90;99.90;;;;;;5114768;27;20186;-42
2022/09/17 08:25:09;;;;;;;7.80;1.80;;;12.90;99.90;;;;;;5113826;28;20266;-43
2022/09/17 08:27:35;;;;;;;8.03;2.83;;;12.90;99.90;;;;;;5114172;28;20185;-43
2022/09/17 08:30:01;;;;;;;8.17;1.87;;;12.90;99.90;;;;;;5112627;28;20706;-43
2022/09/17 08:32:28;;;;;;;10.07;1.60;;;13.00;99.90;;;;;;5113850;28;20640;-43
2022/09/17 08:34:54;;;;;;;3.53;1.23;;;13.00;99.90;;;;;;5113491;28;20192;-45
2022/09/17 08:37:20;;;;;;;5.53;1.43;;;13.10;99.90;;;;;;5114173;28;20178;-44
2022/09/17 08:39:46;;;;;;;6.07;1.13;;;13.10;99.90;;;;;;5113934;28;20209;-43
2022/09/17 08:42:37;;;;;;;4.73;1.37;;;13.20;99.90;;;;;;5113708;28;20267;-43
2022/09/17 08:45:09;;;;;;;4.20;2.60;;;13.40;99.90;;;;;;5113908;28;20210;-42
2022/09/17 08:47:38;;;;;;;8.87;1.70;;;13.50;99.90;;;;;;5114045;28;20227;-45
2022/09/17 08:50:22;;;;;;;9.40;3.27;;;13.60;99.90;;;;;;5113858;28;20643;-44
2022/09/17 08:52:51;;;;;;;6.30;1.53;;;13.60;99.90;;;;;;5114071;28;20162;-44
2022/09/17 08:55:52;;;;;;;6.90;1.43;;;13.50;99.90;;;;;;5113535;28;20295;-45
2022/09/17 08:58:41;;;;;;;4.80;0.87;;;13.50;99.90;;;;;;5113793;28;20170;-44
2022/09/17 09:01:22;;;;;;;7.70;1.33;;;13.50;99.90;;;;;;5113922;28;20336;-45
2022/09/17 09:04:14;;;;;;;8.80;1.50;;;13.70;99.90;;;;;;5113734;28;20190;-45
2022/09/17 09:06:48;;;;;;;7.97;1.30;;;13.80;99.90;;;;;;5113528;28;20647;-45
2022/09/17 09:09:20;;;;;;;8.63;1.10;;;13.70;99.90;;;;;;5113979;28;20578;-44
2022/09/17 09:11:48;;;;;;;3.00;0.70;;;13.80;99.90;;;;;;5113448;28;20210;-45
2022/09/17 09:14:41;;;;;;;2.97;0.97;;;13.70;99.90;;;;;;5113498;28;20705;-46
2022/09/17 09:17:09;;;;;;;3.53;1.00;;;13.80;99.90;;;;;;5112935;28;20181;-40
2022/09/17 09:19:43;;;;;;;4.30;1.30;;;13.90;99.90;;;;;;5113636;28;20261;-39
2022/09/17 09:22:45;;;;;;;5.23;1.03;;;14.00;99.90;;;;;;5114071;28;20174;-39
2022/09/17 09:25:25;;;;;;;8.67;1.13;;;14.20;99.90;;;;;;5113518;28;20212;-45
2022/09/17 09:28:25;;;;;;;1.37;0.60;;;14.40;99.90;;;;;;5114456;28;20509;-45
2022/09/17 09:31:05;;;;;;;7.50;0.83;;;14.50;99.90;;;;;;5113526;28;20170;-45
2022/09/17 09:33:36;;;;;;;3.27;1.07;;;14.70;99.90;;;;;;5112776;28;20181;-45
2022/09/17 09:36:07;;;;;;;3.70;0.70;;;14.70;99.90;;;;;;5113472;28;20281;-43
2022/09/17 09:38:39;;;;;;;5.50;1.00;;;14.70;99.90;;;;;;5113374;28;20272;-43
2022/09/17 09:41:18;;;;;;;4.67;1.60;;;14.80;99.90;;;;;;5113474;28;20166;-43
2022/09/17 09:43:46;;;;;;;5.27;0.80;;;14.80;99.90;;;;;;5114078;28;20222;-44
2022/09/17 09:46:33;;;;;;;4.40;1.13;;;14.70;99.90;;;;;;5112943;28;20198;-39
2022/09/17 09:48:59;;;;;;;7.87;1.10;;;14.80;99.90;;;;;;5117263;28;20563;-39
2022/09/17 09:51:25;;;;;;;3.13;0.93;;;14.80;99.90;;;;;;5116878;27;20170;-40
2022/09/17 09:54:20;;;;;;;4.43;0.93;;;14.80;99.90;;;;;;5117176;28;20311;-42
2022/09/17 09:56:57;;;;;;;7.93;1.20;;;14.90;99.90;;;;;;5116828;28;20198;-40
2022/09/17 09:59:23;;;;;;;3.77;1.20;;;15.00;99.90;;;;;;5117086;28;20166;-42
2022/09/17 10:01:49;;;;;;;6.40;0.97;;;14.80;99.90;;;;;;5117038;28;20662;-41
2022/09/17 10:04:23;;;;;;;5.53;1.30;;;14.70;99.90;;;;;;5116605;28;20198;-43
2022/09/17 10:06:59;;;;;;;6.90;1.03;;;14.60;99.90;;;;;;5116592;28;20662;-41
2022/09/17 10:09:26;;;;;;;3.17;0.80;;;14.50;99.90;;;;;;5116676;28;20194;-42
2022/09/17 10:12:03;;;;;;;3.40;1.00;;;14.20;99.90;;;;;;5115334;28;20174;-44
2022/09/17 10:14:39;;;;;;;2.83;0.87;;;13.80;99.90;;;;;;5116697;28;20168;-41
2022/09/17 10:17:25;;;;;;;6.33;1.33;;;13.60;99.90;;;;;;5116612;28;20543;-40
2022/09/17 10:20:09;;;;;;;3.97;1.30;;;13.40;99.90;;;;;;5115224;28;20644;-41
2022/09/17 10:22:43;;;;;;;3.13;0.90;;;13.40;99.90;;;;;;5117150;27;20161;-42
2022/09/17 10:25:32;;;;;;;2.67;0.90;;;13.50;99.90;;;;;;5116637;28;20204;-43
2022/09/17 10:28:00;;;;;;;4.00;0.90;;;13.60;99.90;;;;;;5116600;28;20237;-46
2022/09/17 10:30:26;;;;;;;5.93;0.97;;;13.80;99.90;;;;;;5116859;28;20658;-46
2022/09/17 10:33:16;;;;;;;2.37;1.00;;;13.90;99.90;;;;;;5116401;27;20178;-45
2022/09/17 10:35:57;;;;;;;9.10;3.40;;;14.20;99.90;;;;;;5116346;28;20241;-45
2022/09/17 10:38:32;;;;;;;8.83;2.37;;;14.30;99.90;;;;;;5117169;28;20162;-44
2022/09/17 10:41:20;;;;;;;3.37;0.80;;;14.40;99.90;;;;;;5116576;27;20279;-44
2022/09/17 10:43:47;;;;;;;3.60;1.00;;;14.60;99.90;;;;;;5116376;28;20189;-45
2022/09/17 10:46:32;;;;;;;3.60;1.20;;;14.70;99.90;;;;;;5116059;28;20194;-44
2022/09/17 10:49:39;;;;;;;5.50;1.10;;;14.80;99.90;;;;;;5116764;28;20193;-45
2022/09/17 10:52:13;;;;;;;5.00;1.03;;;14.70;99.90;;;;;;5115755;28;20736;-45
2022/09/17 10:55:04;;;;;;;3.23;0.87;;;14.60;99.90;;;;;;5116153;28;20166;-47
2022/09/17 10:57:35;;;;;;;2.23;0.87;;;14.50;99.90;;;;;;5116983;28;20155;-46
2022/09/17 11:00:27;;;;;;;3.23;0.90;;;14.30;99.90;;;;;;5116427;28;20178;-47
2022/09/17 11:03:17;;;;;;;4.07;1.60;;;14.20;99.90;;;;;;5115863;28;20163;-46
2022/09/17 11:06:07;;;;;;;6.37;1.70;;;14.30;99.90;;;;;;5115812;28;20288;-46
2022/09/17 11:08:44;;;;;;;5.73;3.03;;;14.40;99.90;;;;;;5115659;28;20158;-45
2022/09/17 11:11:23;;;;;;;5.33;1.23;;;14.50;99.90;;;;;;5115917;28;20165;-46
2022/09/17 11:13:51;;;;;;;4.00;1.10;;;14.60;99.90;;;;;;5115821;28;20574;-45
2022/09/17 11:16:36;;;;;;;4.03;1.40;;;14.60;99.90;;;;;;5115668;28;20190;-46
2022/09/17 11:19:12;;;;;;;5.10;1.50;;;14.60;99.90;;;;;;5115394;28;20158;-44
2022/09/17 11:21:44;;;;;;;3.27;0.90;;;14.70;99.90;;;;;;5115463;28;20159;-45
2022/09/17 11:24:48;;;;;;;6.77;1.17;;;14.80;99.90;;;;;;5113899;28;20221;-44
2022/09/17 11:27:23;;;;;;;3.40;1.20;;;14.90;99.90;;;;;;5115234;28;20239;-45
2022/09/17 11:30:00;;;;;;;7.10;1.10;;;14.80;99.90;;;;;;5115196;28;20163;-45
2022/09/17 11:32:43;;;;;;;4.10;0.90;;;14.90;99.90;;;;;;5115424;28;20163;-43
2022/09/17 11:35:21;;;;;;;3.10;0.70;;;14.80;99.90;;;;;;5115201;28;20208;-46
2022/09/17 11:38:11;;;;;;;3.90;0.80;;;14.80;99.90;;;;;;5116185;28;20562;-44
2022/09/17 11:40:42;;;;;;;2.83;1.03;;;14.60;99.90;;;;;;5115765;28;20516;-45
2022/09/17 11:43:30;;;;;;;4.97;0.80;;;14.50;99.90;;;;;;5113586;28;20652;-47
2022/09/17 11:46:09;;;;;;;2.83;1.10;;;14.40;99.90;;;;;;5113506;28;20292;-45
2022/09/17 11:48:58;;;;;;;2.10;0.70;;;14.40;99.90;;;;;;5115370;28;20150;-46
2022/09/17 11:51:47;;;;;;;4.60;0.83;;;14.30;99.90;;;;;;5110991;28;20182;-45
2022/09/17 11:54:42;;;;;;;4.57;1.50;;;14.30;99.90;;;;;;5114986;28;20162;-45
2022/09/17 11:57:18;;;;;;;7.47;1.50;;;14.40;99.90;;;;;;5095469;28;20191;-46
2022/09/17 11:59:48;;;;;;;4.67;1.40;;;14.50;99.90;;;;;;5113320;28;20170;-43
2022/09/17 12:02:32;;;;;;;2.03;1.00;;;14.70;99.90;;;;;;5114676;28;20170;-44
2022/09/17 12:05:06;;;;;;;2.13;0.60;;;14.80;99.90;;;;;;5114341;28;20210;-44
2022/09/17 12:07:53;;;;;;;2.93;1.30;;;14.90;99.90;;;;;;5114772;28;20158;-45
2022/09/17 12:10:27;;;;;;;2.23;1.10;;;15.00;99.90;;;;;;5114459;27;20173;-46
2022/09/17 12:13:01;;;;;;;4.03;0.67;;;15.10;99.90;;;;;;5114577;28;20185;-45
2022/09/17 12:15:30;;;;;;;1.50;0.73;;;15.10;99.90;;;;;;5114623;28;20206;-45
2022/09/17 12:18:18;;;;;;;4.13;1.30;;;15.20;99.90;;;;;;5114169;28;20664;-47
2022/09/17 12:20:48;;;;;;;5.80;1.30;;;15.40;99.90;;;;;;5114285;28;20174;-47
2022/09/17 12:23:27;;;;;;;3.93;1.20;;;15.40;99.90;;;;;;5114064;28;20658;-46
2022/09/17 12:26:18;;;;;;;2.17;0.80;;;15.50;99.90;;;;;;5114614;28;20220;-41
2022/09/17 12:28:56;;;;;;;1.57;0.70;;;15.50;99.90;;;;;;5114505;28;20158;-41
2022/09/17 12:31:50;;;;;;;6.47;1.70;;;15.70;99.90;;;;;;5114078;28;20205;-42
2022/09/17 12:34:19;;;;;;;3.13;0.90;;;15.80;99.90;;;;;;5114691;28;20170;-38
2022/09/17 12:37:09;;;;;;;2.80;1.10;;;15.90;99.90;;;;;;5113824;28;20704;-41
2022/09/17 12:39:53;;;;;;;2.47;0.80;;;15.80;99.90;;;;;;5114543;28;20155;-40
2022/09/17 12:42:41;;;;;;;2.67;0.50;;;15.80;99.90;;;;;;5113924;28;20174;-43
2022/09/17 12:45:41;;;;;;;3.77;0.70;;;15.80;99.90;;;;;;5113591;28;20702;-42
2022/09/17 12:48:07;;;;;;;3.73;1.17;;;15.70;99.90;;;;;;5114087;28;20158;-39
2022/09/17 12:50:51;;;;;;;2.50;0.80;;;15.50;99.90;;;;;;5113940;28;20253;-40
2022/09/17 12:53:39;;;;;;;3.50;0.90;;;15.40;99.90;;;;;;5114316;28;20166;-38
2022/09/17 12:56:33;;;;;;;1.90;0.60;;;15.40;99.90;;;;;;5112296;28;20690;-40
2022/09/17 12:59:09;;;;;;;4.27;0.80;;;15.50;99.90;;;;;;5113842;28;20215;-39
2022/09/17 13:01:43;;;;;;;1.53;0.50;;;15.50;99.90;;;;;;5112405;28;20206;-38
2022/09/17 13:04:21;;;;;;;3.40;0.60;;;15.50;99.90;;;;;;5113781;28;20196;-38
2022/09/17 13:07:14;;;;;;;2.60;0.67;;;15.50;99.90;;;;;;5113486;28;20213;-39
2022/09/17 13:10:09;;;;;;;3.70;0.63;;;15.50;99.90;;;;;;5113739;28;20642;-39
2022/09/17 13:12:51;;;;;;;1.63;0.43;;;15.50;99.90;;;;;;5097241;28;20184;-39
2022/09/17 13:15:45;;;;;;;2.57;1.03;;;15.60;99.90;;;;;;5113735;28;20686;-38
2022/09/17 13:18:25;;;;;;;3.37;0.60;;;15.70;99.90;;;;;;5113754;28;20595;-40
2022/09/17 13:21:12;;;;;;;3.63;0.80;;;15.70;99.90;;;;;;5113522;28;20161;-39